createdAt,value
2022-11-13T13:58:32.507Z,56.21
2022-11-13T14:01:27.839Z,55.54
2022-11-13T14:04:15.856Z,55.60
2022-11-13T14:07:03.727Z,55.32
2022-11-13T14:09:50.878Z,54.55
2022-11-13T14:12:41.702Z,54.64
2022-11-13T14:15:30.456Z,54.15
2022-11-13T14:18:18.366Z,54.46
2022-11-13T14:21:07.365Z,53.98
2022-11-13T14:23:54.473Z,53.49
2022-11-13T14:26:41.180Z,53.80
2022-11-13T14:29:35.865Z,53.05
2022-11-13T14:32:25.965Z,53.40
2022-11-13T14:35:20.346Z,52.81
2022-11-13T14:38:07.350Z,51.93
2022-11-13T14:40:54.317Z,51.80
2022-11-13T14:43:41.618Z,51.16
2022-11-13T14:46:33.136Z,51.39
2022-11-13T14:49:30.026Z,50.85
2022-11-13T14:52:24.761Z,51.16
2022-11-13T14:55:22.251Z,51.17
2022-11-13T14:58:14.209Z,49.56
2022-11-13T15:01:01.424Z,50.10
2022-11-13T15:03:49.167Z,50.64
2022-11-13T15:06:38.952Z,50.75
2022-11-13T15:09:26.654Z,50.50
2022-11-13T15:12:14.101Z,50.77
2022-11-13T15:15:01.626Z,50.43
2022-11-13T15:17:49.534Z,50.11
2022-11-13T15:20:37.023Z,50.29
2022-11-13T15:23:29.650Z,50.56
2022-11-13T15:26:19.458Z,50.41
2022-11-13T15:29:06.193Z,50.37
2022-11-13T15:31:53.469Z,50.38
2022-11-13T15:34:40.417Z,50.28
2022-11-13T15:37:27.069Z,50.13
2022-11-13T15:40:18.029Z,50.13
2022-11-13T15:43:05.591Z,50.46
2022-11-13T15:45:52.202Z,50.04
2022-11-13T15:48:38.913Z,50.08
2022-11-13T15:51:26.690Z,49.79
2022-11-13T15:54:17.817Z,49.05
2022-11-13T15:57:08.231Z,49.67
2022-11-13T15:59:55.020Z,49.23
2022-11-13T16:02:42.103Z,49.45
2022-11-13T16:05:50.059Z,49.29
2022-11-13T16:08:38.157Z,49.13
2022-11-13T16:11:25.778Z,49.10
2022-11-13T16:14:20.695Z,49.33
2022-11-13T16:17:13.547Z,49.15
2022-11-13T16:20:02.746Z,48.73
2022-11-13T16:22:50.119Z,49.15
2022-11-13T16:25:37.726Z,48.83
2022-11-13T16:28:25.512Z,49.00
2022-11-13T16:31:13.963Z,48.91
2022-11-13T16:34:02.161Z,48.72
2022-11-13T16:36:49.651Z,48.75
2022-11-13T16:39:37.593Z,48.69
2022-11-13T16:42:30.682Z,48.38
2022-11-13T16:45:18.262Z,48.30
2022-11-13T16:48:07.727Z,48.75
2022-11-13T16:50:55.681Z,48.15
2022-11-13T16:53:43.425Z,48.58
2022-11-13T16:56:31.465Z,48.70
2022-11-13T16:59:20.536Z,48.89
2022-11-13T17:02:14.070Z,48.60
2022-11-13T17:05:03.447Z,48.56
2022-11-13T17:07:51.970Z,48.32
2022-11-13T17:10:39.514Z,48.10
2022-11-13T17:13:27.185Z,48.03
2022-11-13T17:16:15.810Z,48.91
2022-11-13T17:19:04.149Z,48.83
2022-11-13T17:21:53.643Z,48.60
2022-11-13T17:24:41.977Z,48.42
2022-11-13T17:27:29.538Z,48.71
2022-11-13T17:30:17.803Z,48.95
2022-11-13T17:33:05.588Z,48.67
2022-11-13T17:35:56.569Z,48.98
2022-11-13T17:38:45.812Z,49.45
2022-11-13T17:41:34.411Z,49.02
2022-11-13T17:44:24.631Z,49.06
2022-11-13T17:47:11.836Z,49.01
2022-11-13T17:50:06.716Z,49.08
2022-11-13T17:52:54.970Z,48.85
2022-11-13T17:55:45.167Z,49.13
2022-11-13T17:58:32.406Z,49.07
2022-11-13T18:01:21.029Z,48.77
2022-11-13T18:04:07.813Z,49.21
2022-11-13T18:06:55.672Z,49.47
2022-11-13T18:09:43.197Z,49.62
2022-11-13T18:12:32.794Z,49.30
2022-11-13T18:15:20.038Z,49.14
2022-11-13T18:18:08.087Z,49.15
2022-11-13T18:20:55.207Z,49.27
2022-11-13T18:23:42.751Z,49.14
2022-11-13T18:26:30.809Z,49.19
2022-11-13T18:29:19.433Z,48.96
2022-11-13T18:32:06.645Z,48.76
2022-11-13T18:34:54.536Z,49.01
2022-11-13T18:37:41.675Z,49.11
2022-11-13T18:40:28.957Z,49.09
2022-11-13T18:43:16.960Z,49.02
2022-11-13T18:46:06.225Z,48.83
2022-11-13T18:48:53.339Z,48.88
2022-11-13T18:51:40.804Z,48.88
2022-11-13T18:54:28.323Z,49.02
2022-11-13T18:57:15.751Z,49.14
2022-11-13T19:00:03.133Z,49.21
2022-11-13T19:02:53.354Z,48.95
2022-11-13T19:05:44.917Z,49.01
2022-11-13T19:08:35.054Z,49.03
2022-11-13T19:11:24.492Z,48.70
2022-11-13T19:14:12.190Z,48.72
2022-11-13T19:16:59.433Z,48.73
2022-11-13T19:19:48.381Z,49.01
2022-11-13T19:22:35.945Z,48.54
2022-11-13T19:25:23.684Z,48.27
2022-11-13T19:28:11.206Z,48.75
2022-11-13T19:30:58.335Z,48.43
2022-11-13T19:33:46.163Z,48.45
2022-11-13T19:36:35.029Z,48.81
2022-11-13T19:39:22.095Z,49.03
2022-11-13T19:42:09.587Z,49.09
2022-11-13T19:44:56.693Z,49.15
2022-11-13T19:47:46.095Z,49.30
2022-11-13T19:50:33.307Z,49.07
2022-11-13T19:53:22.981Z,49.52
2022-11-13T19:56:10.405Z,49.00
2022-11-13T19:58:58.054Z,49.15
2022-11-13T20:01:45.866Z,48.91
2022-11-13T20:04:33.463Z,48.81
2022-11-13T20:07:20.746Z,48.84
2022-11-13T20:10:11.475Z,48.82
2022-11-13T20:12:59.019Z,49.33
2022-11-13T20:15:46.381Z,48.89
2022-11-13T20:18:33.646Z,48.89
2022-11-13T20:21:25.320Z,49.21
2022-11-13T20:24:12.780Z,48.68
2022-11-13T20:27:01.513Z,48.68
2022-11-13T20:29:49.093Z,48.78
2022-11-13T20:32:38.541Z,48.82
2022-11-13T20:35:25.482Z,48.77
2022-11-13T20:38:12.911Z,48.74
2022-11-13T20:40:59.850Z,49.03
2022-11-13T20:43:49.312Z,48.92
2022-11-13T20:46:36.375Z,48.30
2022-11-13T20:49:24.005Z,48.68
2022-11-13T20:52:12.353Z,48.77
2022-11-13T20:54:59.406Z,48.54
2022-11-13T20:57:46.906Z,48.48
2022-11-13T21:00:35.495Z,48.73
2022-11-13T21:03:23.186Z,48.73
2022-11-13T21:06:10.917Z,48.24
2022-11-13T21:08:58.300Z,48.12
2022-11-13T21:11:46.241Z,48.16
2022-11-13T21:14:33.530Z,48.08
2022-11-13T21:17:22.242Z,48.38
2022-11-13T21:20:10.969Z,48.54
2022-11-13T21:22:58.909Z,48.44
2022-11-13T21:25:46.623Z,48.31
2022-11-13T21:28:34.197Z,48.15
2022-11-13T21:31:22.006Z,48.53
2022-11-13T21:34:14.262Z,48.19
2022-11-13T21:37:01.735Z,48.00
2022-11-13T21:39:48.844Z,47.97
2022-11-13T21:42:36.195Z,48.58
2022-11-13T21:45:24.105Z,48.09
2022-11-13T21:48:11.317Z,48.22
2022-11-13T21:51:01.384Z,48.22
2022-11-13T21:53:48.332Z,48.35
2022-11-13T21:56:38.150Z,48.11
2022-11-13T21:59:25.162Z,48.17
2022-11-13T22:02:12.551Z,48.13
2022-11-13T22:05:00.047Z,47.76
2022-11-13T22:07:48.789Z,48.23
2022-11-13T22:10:35.816Z,48.01
2022-11-13T22:13:23.444Z,47.81
2022-11-13T22:16:11.120Z,47.84
2022-11-13T22:18:59.202Z,47.68
2022-11-13T22:21:46.478Z,48.29
2022-11-13T22:24:35.429Z,48.04
2022-11-13T22:27:22.677Z,48.10
2022-11-13T22:30:11.026Z,48.35
2022-11-13T22:32:58.465Z,47.80
2022-11-13T22:35:45.494Z,48.16
2022-11-13T22:38:32.900Z,47.74
2022-11-13T22:41:23.797Z,47.47
2022-11-13T22:44:13.643Z,47.96
2022-11-13T22:47:01.056Z,47.45
2022-11-13T22:49:47.913Z,47.94
2022-11-13T22:52:35.200Z,47.74
2022-11-13T22:55:22.453Z,47.99
2022-11-13T22:58:12.028Z,47.62
2022-11-13T23:01:05.686Z,47.68
2022-11-13T23:03:53.225Z,48.21
2022-11-13T23:06:40.730Z,48.03
2022-11-13T23:09:29.526Z,47.80
2022-11-13T23:12:16.336Z,47.74
2022-11-13T23:15:05.781Z,47.73
2022-11-13T23:17:53.410Z,47.92
2022-11-13T23:20:41.199Z,47.54
2022-11-13T23:23:28.585Z,47.73
2022-11-13T23:26:16.133Z,47.90
2022-11-13T23:29:03.780Z,47.56
2022-11-13T23:31:52.973Z,47.73
2022-11-13T23:34:58.556Z,47.92
2022-11-13T23:37:48.262Z,47.61
2022-11-13T23:40:35.753Z,47.72
2022-11-13T23:43:24.857Z,47.79
2022-11-13T23:46:20.137Z,47.99
2022-11-13T23:49:09.058Z,47.75
2022-11-13T23:51:56.253Z,47.96
2022-11-13T23:54:43.949Z,47.44
2022-11-13T23:57:31.261Z,47.63
